sensor_id;sensor_type;location;lat;lon;timestamp;temperature;humidity
14901;DHT22;7542;49.078;9.194;2023-05-07T00:00:37;27.20;47.90
14901;DHT22;7542;49.078;9.194;2023-05-07T00:01:39;27.20;47.90
14901;DHT22;7542;49.078;9.194;2023-05-07T00:02:41;27.10;48.00
14901;DHT22;7542;49.078;9.194;2023-05-07T00:03:44;27.10;48.00
14901;DHT22;7542;49.078;9.194;2023-05-07T00:04:47;27.10;48.00
14901;DHT22;7542;49.078;9.194;2023-05-07T00:05:49;27.10;48.00
14901;DHT22;7542;49.078;9.194;2023-05-07T00:06:51;27.10;48.00
14901;DHT22;7542;49.078;9.194;2023-05-07T00:07:53;27.10;48.10
14901;DHT22;7542;49.078;9.194;2023-05-07T00:08:56;27.10;48.10
14901;DHT22;7542;49.078;9.194;2023-05-07T00:09:59;27.10;48.10
14901;DHT22;7542;49.078;9.194;2023-05-07T00:11:01;27.10;48.10
14901;DHT22;7542;49.078;9.194;2023-05-07T00:12:03;27.00;48.10
14901;DHT22;7542;49.078;9.194;2023-05-07T00:13:05;27.00;48.10
14901;DHT22;7542;49.078;9.194;2023-05-07T00:14:07;27.10;48.10
14901;DHT22;7542;49.078;9.194;2023-05-07T00:15:09;27.00;48.10
14901;DHT22;7542;49.078;9.194;2023-05-07T00:16:12;27.10;48.20
14901;DHT22;7542;49.078;9.194;2023-05-07T00:17:14;27.00;48.10
14901;DHT22;7542;49.078;9.194;2023-05-07T00:18:16;27.10;48.20
14901;DHT22;7542;49.078;9.194;2023-05-07T00:19:18;27.00;48.10
14901;DHT22;7542;49.078;9.194;2023-05-07T00:20:20;27.00;48.20
14901;DHT22;7542;49.078;9.194;2023-05-07T00:21:22;27.00;48.10
14901;DHT22;7542;49.078;9.194;2023-05-07T00:22:24;27.00;48.20
14901;DHT22;7542;49.078;9.194;2023-05-07T00:23:26;27.00;48.30
14901;DHT22;7542;49.078;9.194;2023-05-07T00:24:28;27.00;48.30
14901;DHT22;7542;49.078;9.194;2023-05-07T00:25:30;27.00;48.20
14901;DHT22;7542;49.078;9.194;2023-05-07T00:26:32;27.00;48.20
14901;DHT22;7542;49.078;9.194;2023-05-07T00:27:34;26.90;47.60
14901;DHT22;7542;49.078;9.194;2023-05-07T00:28:36;27.00;48.20
14901;DHT22;7542;49.078;9.194;2023-05-07T00:29:38;26.90;47.70
14901;DHT22;7542;49.078;9.194;2023-05-07T00:30:40;26.90;47.70
14901;DHT22;7542;49.078;9.194;2023-05-07T00:31:42;26.90;47.80
14901;DHT22;7542;49.078;9.194;2023-05-07T00:32:44;26.90;47.70
14901;DHT22;7542;49.078;9.194;2023-05-07T00:33:47;26.90;47.70
14901;DHT22;7542;49.078;9.194;2023-05-07T00:34:49;26.90;47.70
14901;DHT22;7542;49.078;9.194;2023-05-07T00:35:52;26.90;47.80
14901;DHT22;7542;49.078;9.194;2023-05-07T00:36:55;26.80;47.80
14901;DHT22;7542;49.078;9.194;2023-05-07T00:37:58;26.80;47.80
14901;DHT22;7542;49.078;9.194;2023-05-07T00:39:00;26.80;47.80
14901;DHT22;7542;49.078;9.194;2023-05-07T00:40:05;26.80;47.90
14901;DHT22;7542;49.078;9.194;2023-05-07T00:41:09;26.80;47.90
14901;DHT22;7542;49.078;9.194;2023-05-07T00:42:11;26.80;47.90
14901;DHT22;7542;49.078;9.194;2023-05-07T00:43:13;26.80;47.90
14901;DHT22;7542;49.078;9.194;2023-05-07T00:44:16;26.80;47.90
14901;DHT22;7542;49.078;9.194;2023-05-07T00:45:19;26.80;47.90
14901;DHT22;7542;49.078;9.194;2023-05-07T00:46:21;26.80;47.90
14901;DHT22;7542;49.078;9.194;2023-05-07T00:47:25;26.80;47.90
14901;DHT22;7542;49.078;9.194;2023-05-07T00:48:27;26.80;47.90
14901;DHT22;7542;49.078;9.194;2023-05-07T00:49:38;26.80;47.90
14901;DHT22;7542;49.078;9.194;2023-05-07T00:50:43;26.80;47.90
14901;DHT22;7542;49.078;9.194;2023-05-07T00:51:47;26.80;47.90
14901;DHT22;7542;49.078;9.194;2023-05-07T00:52:49;26.70;47.90
14901;DHT22;7542;49.078;9.194;2023-05-07T00:53:51;26.80;48.00
14901;DHT22;7542;49.078;9.194;2023-05-07T00:54:54;26.80;48.00
14901;DHT22;7542;49.078;9.194;2023-05-07T00:55:56;26.70;48.00
14901;DHT22;7542;49.078;9.194;2023-05-07T00:56:59;26.70;48.00
14901;DHT22;7542;49.078;9.194;2023-05-07T00:58:01;26.70;47.90
14901;DHT22;7542;49.078;9.194;2023-05-07T00:59:03;26.70;48.00
14901;DHT22;7542;49.078;9.194;2023-05-07T01:00:05;26.70;48.00
14901;DHT22;7542;49.078;9.194;2023-05-07T01:01:10;26.70;48.00
14901;DHT22;7542;49.078;9.194;2023-05-07T01:02:13;26.60;48.00
14901;DHT22;7542;49.078;9.194;2023-05-07T01:03:15;26.60;47.90
14901;DHT22;7542;49.078;9.194;2023-05-07T01:04:17;26.70;48.00
14901;DHT22;7542;49.078;9.194;2023-05-07T01:05:22;26.70;48.00
14901;DHT22;7542;49.078;9.194;2023-05-07T01:06:28;26.60;48.10
14901;DHT22;7542;49.078;9.194;2023-05-07T01:07:32;26.60;48.00
14901;DHT22;7542;49.078;9.194;2023-05-07T01:08:36;26.60;48.20
14901;DHT22;7542;49.078;9.194;2023-05-07T01:09:41;26.60;48.10
14901;DHT22;7542;49.078;9.194;2023-05-07T01:10:43;26.60;48.20
14901;DHT22;7542;49.078;9.194;2023-05-07T01:11:48;26.60;48.10
14901;DHT22;7542;49.078;9.194;2023-05-07T01:12:52;26.60;48.10
14901;DHT22;7542;49.078;9.194;2023-05-07T01:13:56;26.60;48.20
14901;DHT22;7542;49.078;9.194;2023-05-07T01:15:01;26.60;48.20
14901;DHT22;7542;49.078;9.194;2023-05-07T01:16:04;26.60;48.20
14901;DHT22;7542;49.078;9.194;2023-05-07T01:17:07;26.60;48.20
14901;DHT22;7542;49.078;9.194;2023-05-07T01:18:10;26.60;48.20
14901;DHT22;7542;49.078;9.194;2023-05-07T01:19:12;26.80;48.20
14901;DHT22;7542;49.078;9.194;2023-05-07T01:20:18;26.60;48.20
14901;DHT22;7542;49.078;9.194;2023-05-07T01:21:24;26.50;48.20
14901;DHT22;7542;49.078;9.194;2023-05-07T01:22:35;26.50;48.20
14901;DHT22;7542;49.078;9.194;2023-05-07T01:23:39;26.50;48.20
14901;DHT22;7542;49.078;9.194;2023-05-07T01:24:42;26.40;48.30
14901;DHT22;7542;49.078;9.194;2023-05-07T01:25:54;26.50;48.30
14901;DHT22;7542;49.078;9.194;2023-05-07T01:26:56;26.50;48.20
14901;DHT22;7542;49.078;9.194;2023-05-07T01:27:58;26.50;48.20
14901;DHT22;7542;49.078;9.194;2023-05-07T01:29:04;26.40;48.20
14901;DHT22;7542;49.078;9.194;2023-05-07T01:30:06;26.40;48.30
14901;DHT22;7542;49.078;9.194;2023-05-07T01:31:09;26.40;48.40
14901;DHT22;7542;49.078;9.194;2023-05-07T01:32:12;26.50;48.40
14901;DHT22;7542;49.078;9.194;2023-05-07T01:33:19;26.40;48.40
14901;DHT22;7542;49.078;9.194;2023-05-07T01:34:28;26.40;48.40
14901;DHT22;7542;49.078;9.194;2023-05-07T01:35:37;26.40;48.40
14901;DHT22;7542;49.078;9.194;2023-05-07T01:36:43;26.40;48.40
14901;DHT22;7542;49.078;9.194;2023-05-07T01:37:47;26.40;48.40
14901;DHT22;7542;49.078;9.194;2023-05-07T01:38:49;26.40;48.40
14901;DHT22;7542;49.078;9.194;2023-05-07T01:39:52;26.40;48.50
14901;DHT22;7542;49.078;9.194;2023-05-07T01:40:56;26.30;48.50
14901;DHT22;7542;49.078;9.194;2023-05-07T01:41:59;26.50;48.40
14901;DHT22;7542;49.078;9.194;2023-05-07T01:43:05;26.30;48.60
14901;DHT22;7542;49.078;9.194;2023-05-07T01:44:08;26.30;48.60
14901;DHT22;7542;49.078;9.194;2023-05-07T01:45:14;26.40;48.60
14901;DHT22;7542;49.078;9.194;2023-05-07T01:46:17;26.30;48.60
14901;DHT22;7542;49.078;9.194;2023-05-07T01:47:21;26.40;48.60
14901;DHT22;7542;49.078;9.194;2023-05-07T01:48:24;26.30;48.60
14901;DHT22;7542;49.078;9.194;2023-05-07T01:49:27;26.30;48.70
14901;DHT22;7542;49.078;9.194;2023-05-07T01:50:30;26.30;48.70
14901;DHT22;7542;49.078;9.194;2023-05-07T01:51:34;26.30;48.60
14901;DHT22;7542;49.078;9.194;2023-05-07T01:52:39;26.30;48.70
14901;DHT22;7542;49.078;9.194;2023-05-07T01:53:41;26.30;48.60
14901;DHT22;7542;49.078;9.194;2023-05-07T01:54:45;26.30;48.70
14901;DHT22;7542;49.078;9.194;2023-05-07T01:55:47;26.20;48.70
14901;DHT22;7542;49.078;9.194;2023-05-07T01:56:49;26.30;48.70
14901;DHT22;7542;49.078;9.194;2023-05-07T01:57:51;26.20;48.70
14901;DHT22;7542;49.078;9.194;2023-05-07T01:58:52;26.20;48.60
14901;DHT22;7542;49.078;9.194;2023-05-07T01:59:55;26.30;48.60
14901;DHT22;7542;49.078;9.194;2023-05-07T02:00:57;26.30;48.70
14901;DHT22;7542;49.078;9.194;2023-05-07T02:01:59;26.20;48.70
14901;DHT22;7542;49.078;9.194;2023-05-07T02:03:01;26.20;48.70
14901;DHT22;7542;49.078;9.194;2023-05-07T02:04:03;26.20;48.70
14901;DHT22;7542;49.078;9.194;2023-05-07T02:05:06;26.20;48.80
14901;DHT22;7542;49.078;9.194;2023-05-07T02:06:08;26.20;48.70
14901;DHT22;7542;49.078;9.194;2023-05-07T02:07:10;26.20;48.70
14901;DHT22;7542;49.078;9.194;2023-05-07T02:08:12;26.20;48.80
14901;DHT22;7542;49.078;9.194;2023-05-07T02:09:14;26.20;48.70
14901;DHT22;7542;49.078;9.194;2023-05-07T02:10:19;26.20;48.70
14901;DHT22;7542;49.078;9.194;2023-05-07T02:11:21;26.20;48.90
14901;DHT22;7542;49.078;9.194;2023-05-07T02:12:23;26.20;48.70
14901;DHT22;7542;49.078;9.194;2023-05-07T02:13:28;26.20;48.80
14901;DHT22;7542;49.078;9.194;2023-05-07T02:14:31;26.20;48.90
14901;DHT22;7542;49.078;9.194;2023-05-07T02:15:33;26.20;48.80
14901;DHT22;7542;49.078;9.194;2023-05-07T02:16:35;26.20;48.80
14901;DHT22;7542;49.078;9.194;2023-05-07T02:17:58;26.20;48.70
14901;DHT22;7542;49.078;9.194;2023-05-07T02:19:02;26.20;48.90
14901;DHT22;7542;49.078;9.194;2023-05-07T02:20:05;26.10;48.80
14901;DHT22;7542;49.078;9.194;2023-05-07T02:21:09;26.20;48.90
14901;DHT22;7542;49.078;9.194;2023-05-07T02:22:10;26.10;48.90
14901;DHT22;7542;49.078;9.194;2023-05-07T02:23:13;26.10;48.90
14901;DHT22;7542;49.078;9.194;2023-05-07T02:24:15;26.20;48.90
14901;DHT22;7542;49.078;9.194;2023-05-07T02:25:17;26.20;48.90
14901;DHT22;7542;49.078;9.194;2023-05-07T02:26:19;26.10;48.90
14901;DHT22;7542;49.078;9.194;2023-05-07T02:27:22;26.20;48.90
14901;DHT22;7542;49.078;9.194;2023-05-07T02:28:24;26.10;48.90
14901;DHT22;7542;49.078;9.194;2023-05-07T02:29:26;26.10;48.80
14901;DHT22;7542;49.078;9.194;2023-05-07T02:30:28;26.10;48.90
14901;DHT22;7542;49.078;9.194;2023-05-07T02:31:30;26.10;48.90
14901;DHT22;7542;49.078;9.194;2023-05-07T02:32:33;26.10;48.90
14901;DHT22;7542;49.078;9.194;2023-05-07T02:33:35;26.10;48.90
14901;DHT22;7542;49.078;9.194;2023-05-07T02:34:38;26.10;49.00
14901;DHT22;7542;49.078;9.194;2023-05-07T02:35:40;26.10;49.00
14901;DHT22;7542;49.078;9.194;2023-05-07T02:36:42;26.10;49.00
14901;DHT22;7542;49.078;9.194;2023-05-07T02:37:44;26.10;49.00
14901;DHT22;7542;49.078;9.194;2023-05-07T02:38:46;26.10;49.00
14901;DHT22;7542;49.078;9.194;2023-05-07T02:39:48;26.00;49.00
14901;DHT22;7542;49.078;9.194;2023-05-07T02:40:50;26.10;49.00
14901;DHT22;7542;49.078;9.194;2023-05-07T02:41:51;26.10;49.00
14901;DHT22;7542;49.078;9.194;2023-05-07T02:42:53;26.00;49.00
14901;DHT22;7542;49.078;9.194;2023-05-07T02:43:55;26.10;49.00
14901;DHT22;7542;49.078;9.194;2023-05-07T02:44:58;26.00;49.00
14901;DHT22;7542;49.078;9.194;2023-05-07T02:46:08;26.10;49.10
14901;DHT22;7542;49.078;9.194;2023-05-07T02:47:11;25.90;48.60
14901;DHT22;7542;49.078;9.194;2023-05-07T02:48:14;26.00;49.10
14901;DHT22;7542;49.078;9.194;2023-05-07T02:49:16;26.00;49.10
14901;DHT22;7542;49.078;9.194;2023-05-07T02:50:18;26.00;49.10
14901;DHT22;7542;49.078;9.194;2023-05-07T02:51:21;26.00;49.10
14901;DHT22;7542;49.078;9.194;2023-05-07T02:52:26;26.00;49.10
14901;DHT22;7542;49.078;9.194;2023-05-07T02:53:28;26.00;49.10
14901;DHT22;7542;49.078;9.194;2023-05-07T02:54:30;26.00;49.10
14901;DHT22;7542;49.078;9.194;2023-05-07T02:55:33;26.00;49.10
14901;DHT22;7542;49.078;9.194;2023-05-07T02:56:35;26.00;49.10
14901;DHT22;7542;49.078;9.194;2023-05-07T02:57:37;26.00;49.10
14901;DHT22;7542;49.078;9.194;2023-05-07T02:58:39;26.00;49.00
14901;DHT22;7542;49.078;9.194;2023-05-07T02:59:41;26.00;49.10
14901;DHT22;7542;49.078;9.194;2023-05-07T03:00:44;26.00;49.10
14901;DHT22;7542;49.078;9.194;2023-05-07T03:01:46;25.90;48.70
14901;DHT22;7542;49.078;9.194;2023-05-07T03:02:48;25.90;48.70
14901;DHT22;7542;49.078;9.194;2023-05-07T03:03:50;25.90;48.70
14901;DHT22;7542;49.078;9.194;2023-05-07T03:04:52;25.90;48.70
14901;DHT22;7542;49.078;9.194;2023-05-07T03:05:54;25.90;48.80
14901;DHT22;7542;49.078;9.194;2023-05-07T03:06:56;25.90;48.80
14901;DHT22;7542;49.078;9.194;2023-05-07T03:07:58;25.90;48.80
14901;DHT22;7542;49.078;9.194;2023-05-07T03:09:00;25.90;48.80
14901;DHT22;7542;49.078;9.194;2023-05-07T03:10:04;25.90;48.80
14901;DHT22;7542;49.078;9.194;2023-05-07T03:11:06;25.90;48.80
14901;DHT22;7542;49.078;9.194;2023-05-07T03:12:08;25.90;48.80
14901;DHT22;7542;49.078;9.194;2023-05-07T03:13:10;25.90;48.80
14901;DHT22;7542;49.078;9.194;2023-05-07T03:14:12;25.90;48.80
14901;DHT22;7542;49.078;9.194;2023-05-07T03:15:14;25.90;48.90
14901;DHT22;7542;49.078;9.194;2023-05-07T03:16:16;25.90;48.90
14901;DHT22;7542;49.078;9.194;2023-05-07T03:17:18;25.80;48.80
14901;DHT22;7542;49.078;9.194;2023-05-07T03:18:20;25.90;48.80
14901;DHT22;7542;49.078;9.194;2023-05-07T03:19:22;25.90;48.90
14901;DHT22;7542;49.078;9.194;2023-05-07T03:20:24;25.80;48.90
14901;DHT22;7542;49.078;9.194;2023-05-07T03:21:26;25.80;48.90
14901;DHT22;7542;49.078;9.194;2023-05-07T03:22:28;25.90;48.90
14901;DHT22;7542;49.078;9.194;2023-05-07T03:23:30;25.80;48.90
14901;DHT22;7542;49.078;9.194;2023-05-07T03:24:32;25.80;48.90
14901;DHT22;7542;49.078;9.194;2023-05-07T03:25:34;25.70;48.90
14901;DHT22;7542;49.078;9.194;2023-05-07T03:26:36;25.80;48.90
14901;DHT22;7542;49.078;9.194;2023-05-07T03:27:38;25.80;49.00
14901;DHT22;7542;49.078;9.194;2023-05-07T03:28:40;25.70;49.00
14901;DHT22;7542;49.078;9.194;2023-05-07T03:29:42;25.80;49.10
14901;DHT22;7542;49.078;9.194;2023-05-07T03:30:44;25.70;49.10
14901;DHT22;7542;49.078;9.194;2023-05-07T03:31:46;25.80;49.00
14901;DHT22;7542;49.078;9.194;2023-05-07T03:32:48;25.70;49.10
14901;DHT22;7542;49.078;9.194;2023-05-07T03:33:55;25.70;49.00
14901;DHT22;7542;49.078;9.194;2023-05-07T03:34:58;25.70;49.00
14901;DHT22;7542;49.078;9.194;2023-05-07T03:36:00;25.70;49.00
14901;DHT22;7542;49.078;9.194;2023-05-07T03:37:02;25.70;49.10
14901;DHT22;7542;49.078;9.194;2023-05-07T03:38:05;25.70;49.00
14901;DHT22;7542;49.078;9.194;2023-05-07T03:39:07;25.70;49.00
14901;DHT22;7542;49.078;9.194;2023-05-07T03:40:09;25.70;49.00
14901;DHT22;7542;49.078;9.194;2023-05-07T03:41:12;25.60;49.10
14901;DHT22;7542;49.078;9.194;2023-05-07T03:42:14;25.70;49.10
14901;DHT22;7542;49.078;9.194;2023-05-07T03:43:17;25.70;49.00
14901;DHT22;7542;49.078;9.194;2023-05-07T03:44:19;25.70;49.00
14901;DHT22;7542;49.078;9.194;2023-05-07T03:45:21;25.70;49.00
14901;DHT22;7542;49.078;9.194;2023-05-07T03:46:23;25.60;49.10
14901;DHT22;7542;49.078;9.194;2023-05-07T03:47:27;25.60;49.10
14901;DHT22;7542;49.078;9.194;2023-05-07T03:48:29;25.60;49.10
14901;DHT22;7542;49.078;9.194;2023-05-07T03:49:31;25.60;49.20
14901;DHT22;7542;49.078;9.194;2023-05-07T03:50:33;25.70;49.20
14901;DHT22;7542;49.078;9.194;2023-05-07T03:51:35;30.80;51.70
14901;DHT22;7542;49.078;9.194;2023-05-07T03:52:37;25.60;49.20
14901;DHT22;7542;49.078;9.194;2023-05-07T03:53:39;25.60;49.20
14901;DHT22;7542;49.078;9.194;2023-05-07T03:54:41;25.60;49.20
14901;DHT22;7542;49.078;9.194;2023-05-07T03:55:43;25.70;49.20
14901;DHT22;7542;49.078;9.194;2023-05-07T03:56:45;25.60;49.20
14901;DHT22;7542;49.078;9.194;2023-05-07T03:57:46;25.70;49.20
14901;DHT22;7542;49.078;9.194;2023-05-07T03:58:48;25.60;49.20
14901;DHT22;7542;49.078;9.194;2023-05-07T03:59:50;25.60;49.20
14901;DHT22;7542;49.078;9.194;2023-05-07T04:00:53;25.60;49.20
14901;DHT22;7542;49.078;9.194;2023-05-07T04:01:55;25.60;49.20
14901;DHT22;7542;49.078;9.194;2023-05-07T04:02:57;25.60;49.20
14901;DHT22;7542;49.078;9.194;2023-05-07T04:03:59;25.60;49.20
14901;DHT22;7542;49.078;9.194;2023-05-07T04:05:01;25.60;49.20
14901;DHT22;7542;49.078;9.194;2023-05-07T04:06:03;25.60;49.20
14901;DHT22;7542;49.078;9.194;2023-05-07T04:07:05;24.00;48.80
14901;DHT22;7542;49.078;9.194;2023-05-07T04:08:07;25.50;49.20
14901;DHT22;7542;49.078;9.194;2023-05-07T04:09:09;25.50;49.20
14901;DHT22;7542;49.078;9.194;2023-05-07T04:10:11;25.50;49.20
14901;DHT22;7542;49.078;9.194;2023-05-07T04:11:15;25.50;49.20
14901;DHT22;7542;49.078;9.194;2023-05-07T04:12:17;25.50;49.20
14901;DHT22;7542;49.078;9.194;2023-05-07T04:13:19;25.50;49.20
14901;DHT22;7542;49.078;9.194;2023-05-07T04:14:21;25.50;49.20
14901;DHT22;7542;49.078;9.194;2023-05-07T04:15:23;25.50;49.20
14901;DHT22;7542;49.078;9.194;2023-05-07T04:16:25;25.50;49.20
14901;DHT22;7542;49.078;9.194;2023-05-07T04:17:27;25.50;49.20
14901;DHT22;7542;49.078;9.194;2023-05-07T04:18:29;25.50;49.20
14901;DHT22;7542;49.078;9.194;2023-05-07T04:19:33;25.50;49.20
14901;DHT22;7542;49.078;9.194;2023-05-07T04:20:35;25.50;49.20
14901;DHT22;7542;49.078;9.194;2023-05-07T04:21:38;25.50;49.30
14901;DHT22;7542;49.078;9.194;2023-05-07T04:22:40;25.50;49.30
14901;DHT22;7542;49.078;9.194;2023-05-07T04:23:42;25.50;49.20
14901;DHT22;7542;49.078;9.194;2023-05-07T04:24:44;23.80;48.90
14901;DHT22;7542;49.078;9.194;2023-05-07T04:25:46;25.50;49.20
14901;DHT22;7542;49.078;9.194;2023-05-07T04:26:48;25.50;49.30
14901;DHT22;7542;49.078;9.194;2023-05-07T04:27:50;25.50;49.30
14901;DHT22;7542;49.078;9.194;2023-05-07T04:28:52;25.50;49.30
14901;DHT22;7542;49.078;9.194;2023-05-07T04:29:54;25.50;49.30
14901;DHT22;7542;49.078;9.194;2023-05-07T04:30:57;25.50;49.30
14901;DHT22;7542;49.078;9.194;2023-05-07T04:32:00;25.50;49.30
14901;DHT22;7542;49.078;9.194;2023-05-07T04:33:02;25.40;49.30
14901;DHT22;7542;49.078;9.194;2023-05-07T04:34:04;25.40;49.30
14901;DHT22;7542;49.078;9.194;2023-05-07T04:35:07;25.50;49.30
14901;DHT22;7542;49.078;9.194;2023-05-07T04:36:09;25.50;49.30
14901;DHT22;7542;49.078;9.194;2023-05-07T04:37:11;25.50;49.30
14901;DHT22;7542;49.078;9.194;2023-05-07T04:38:13;25.40;49.30
14901;DHT22;7542;49.078;9.194;2023-05-07T04:39:14;25.30;49.30
14901;DHT22;7542;49.078;9.194;2023-05-07T04:40:16;25.40;49.40
14901;DHT22;7542;49.078;9.194;2023-05-07T04:41:18;25.40;49.40
14901;DHT22;7542;49.078;9.194;2023-05-07T04:42:21;25.40;49.40
14901;DHT22;7542;49.078;9.194;2023-05-07T04:43:23;25.30;49.40
14901;DHT22;7542;49.078;9.194;2023-05-07T04:44:25;25.40;49.30
14901;DHT22;7542;49.078;9.194;2023-05-07T04:45:27;25.30;49.40
14901;DHT22;7542;49.078;9.194;2023-05-07T04:46:29;25.40;49.40
14901;DHT22;7542;49.078;9.194;2023-05-07T04:47:33;25.40;49.40
14901;DHT22;7542;49.078;9.194;2023-05-07T04:48:35;25.30;49.40
14901;DHT22;7542;49.078;9.194;2023-05-07T04:49:40;25.40;49.40
14901;DHT22;7542;49.078;9.194;2023-05-07T04:50:42;25.30;49.40
14901;DHT22;7542;49.078;9.194;2023-05-07T04:51:44;25.30;49.40
14901;DHT22;7542;49.078;9.194;2023-05-07T04:52:46;25.30;49.40
14901;DHT22;7542;49.078;9.194;2023-05-07T04:53:49;25.40;49.40
14901;DHT22;7542;49.078;9.194;2023-05-07T04:54:50;25.40;49.40
14901;DHT22;7542;49.078;9.194;2023-05-07T04:55:56;25.30;49.40
14901;DHT22;7542;49.078;9.194;2023-05-07T04:56:58;25.30;49.50
14901;DHT22;7542;49.078;9.194;2023-05-07T04:58:00;25.30;49.40
14901;DHT22;7542;49.078;9.194;2023-05-07T04:59:03;25.30;49.60
14901;DHT22;7542;49.078;9.194;2023-05-07T05:00:06;25.30;49.50
14901;DHT22;7542;49.078;9.194;2023-05-07T05:01:10;25.30;49.40
14901;DHT22;7542;49.078;9.194;2023-05-07T05:02:12;25.30;49.50
14901;DHT22;7542;49.078;9.194;2023-05-07T05:03:15;25.30;49.50
14901;DHT22;7542;49.078;9.194;2023-05-07T05:04:17;25.30;49.60
14901;DHT22;7542;49.078;9.194;2023-05-07T05:05:19;25.30;49.50
14901;DHT22;7542;49.078;9.194;2023-05-07T05:06:21;25.30;49.50
14901;DHT22;7542;49.078;9.194;2023-05-07T05:07:23;25.30;49.50
14901;DHT22;7542;49.078;9.194;2023-05-07T05:08:25;25.30;49.50
14901;DHT22;7542;49.078;9.194;2023-05-07T05:09:28;25.30;49.50
14901;DHT22;7542;49.078;9.194;2023-05-07T05:10:30;25.30;49.50
14901;DHT22;7542;49.078;9.194;2023-05-07T05:11:32;25.30;49.50
14901;DHT22;7542;49.078;9.194;2023-05-07T05:12:34;25.40;49.50
14901;DHT22;7542;49.078;9.194;2023-05-07T05:13:36;25.30;49.50
14901;DHT22;7542;49.078;9.194;2023-05-07T05:14:38;25.30;49.50
14901;DHT22;7542;49.078;9.194;2023-05-07T05:15:40;25.30;49.50
14901;DHT22;7542;49.078;9.194;2023-05-07T05:16:42;25.30;49.50
14901;DHT22;7542;49.078;9.194;2023-05-07T05:17:44;25.30;49.60
14901;DHT22;7542;49.078;9.194;2023-05-07T05:18:46;25.20;49.50
14901;DHT22;7542;49.078;9.194;2023-05-07T05:19:48;25.30;49.60
14901;DHT22;7542;49.078;9.194;2023-05-07T05:20:51;25.30;49.70
14901;DHT22;7542;49.078;9.194;2023-05-07T05:21:53;25.30;49.70
14901;DHT22;7542;49.078;9.194;2023-05-07T05:22:55;25.40;49.70
14901;DHT22;7542;49.078;9.194;2023-05-07T05:23:57;25.40;49.70
14901;DHT22;7542;49.078;9.194;2023-05-07T05:25:00;25.30;49.80
14901;DHT22;7542;49.078;9.194;2023-05-07T05:26:02;25.40;49.80
14901;DHT22;7542;49.078;9.194;2023-05-07T05:27:05;25.40;49.70
14901;DHT22;7542;49.078;9.194;2023-05-07T05:28:07;25.40;49.80
14901;DHT22;7542;49.078;9.194;2023-05-07T05:29:09;25.40;50.00
14901;DHT22;7542;49.078;9.194;2023-05-07T05:30:11;25.40;49.80
14901;DHT22;7542;49.078;9.194;2023-05-07T05:31:14;25.40;49.90
14901;DHT22;7542;49.078;9.194;2023-05-07T05:32:16;25.40;50.00
14901;DHT22;7542;49.078;9.194;2023-05-07T05:33:18;25.40;50.10
14901;DHT22;7542;49.078;9.194;2023-05-07T05:34:20;25.40;50.10
14901;DHT22;7542;49.078;9.194;2023-05-07T05:35:21;25.40;50.10
14901;DHT22;7542;49.078;9.194;2023-05-07T05:36:23;25.40;50.20
14901;DHT22;7542;49.078;9.194;2023-05-07T05:37:25;25.40;50.10
14901;DHT22;7542;49.078;9.194;2023-05-07T05:38:28;25.40;50.20
14901;DHT22;7542;49.078;9.194;2023-05-07T05:39:30;25.50;50.20
14901;DHT22;7542;49.078;9.194;2023-05-07T05:40:32;25.40;50.20
14901;DHT22;7542;49.078;9.194;2023-05-07T05:41:34;25.40;50.20
14901;DHT22;7542;49.078;9.194;2023-05-07T05:42:36;25.40;50.20
14901;DHT22;7542;49.078;9.194;2023-05-07T05:43:38;25.40;50.10
14901;DHT22;7542;49.078;9.194;2023-05-07T05:44:40;25.40;50.20
14901;DHT22;7542;49.078;9.194;2023-05-07T05:45:42;25.50;50.20
14901;DHT22;7542;49.078;9.194;2023-05-07T05:46:44;25.40;50.20
14901;DHT22;7542;49.078;9.194;2023-05-07T05:47:46;25.50;50.20
14901;DHT22;7542;49.078;9.194;2023-05-07T05:48:49;25.50;50.20
14901;DHT22;7542;49.078;9.194;2023-05-07T05:49:51;25.40;50.20
14901;DHT22;7542;49.078;9.194;2023-05-07T05:50:52;25.30;50.10
14901;DHT22;7542;49.078;9.194;2023-05-07T05:51:55;25.50;50.20
14901;DHT22;7542;49.078;9.194;2023-05-07T05:52:57;25.50;50.20
14901;DHT22;7542;49.078;9.194;2023-05-07T05:54:01;25.50;50.20
14901;DHT22;7542;49.078;9.194;2023-05-07T05:55:03;25.50;50.20
14901;DHT22;7542;49.078;9.194;2023-05-07T05:56:05;25.50;50.20
14901;DHT22;7542;49.078;9.194;2023-05-07T05:57:07;25.50;50.20
14901;DHT22;7542;49.078;9.194;2023-05-07T05:58:10;25.50;50.30
14901;DHT22;7542;49.078;9.194;2023-05-07T05:59:12;25.50;50.30
14901;DHT22;7542;49.078;9.194;2023-05-07T06:00:14;25.50;50.30
14901;DHT22;7542;49.078;9.194;2023-05-07T06:01:17;25.50;50.30
14901;DHT22;7542;49.078;9.194;2023-05-07T06:02:20;25.50;50.50
14901;DHT22;7542;49.078;9.194;2023-05-07T06:03:22;25.00;50.50
14901;DHT22;7542;49.078;9.194;2023-05-07T06:04:24;25.50;50.50
14901;DHT22;7542;49.078;9.194;2023-05-07T06:05:26;25.50;50.50
14901;DHT22;7542;49.078;9.194;2023-05-07T06:06:28;25.50;50.70
14901;DHT22;7542;49.078;9.194;2023-05-07T06:07:30;25.50;50.50
14901;DHT22;7542;49.078;9.194;2023-05-07T06:08:32;25.60;50.40
14901;DHT22;7542;49.078;9.194;2023-05-07T06:09:34;25.50;50.50
14901;DHT22;7542;49.078;9.194;2023-05-07T06:10:37;25.60;50.50
14901;DHT22;7542;49.078;9.194;2023-05-07T06:11:39;25.60;50.50
14901;DHT22;7542;49.078;9.194;2023-05-07T06:12:42;25.60;50.60
14901;DHT22;7542;49.078;9.194;2023-05-07T06:13:44;25.60;50.50
14901;DHT22;7542;49.078;9.194;2023-05-07T06:14:46;25.70;50.70
14901;DHT22;7542;49.078;9.194;2023-05-07T06:15:49;25.60;50.80
14901;DHT22;7542;49.078;9.194;2023-05-07T06:16:51;25.60;50.80
14901;DHT22;7542;49.078;9.194;2023-05-07T06:17:53;25.60;50.70
14901;DHT22;7542;49.078;9.194;2023-05-07T06:18:57;25.60;50.70
14901;DHT22;7542;49.078;9.194;2023-05-07T06:19:59;25.60;50.60
14901;DHT22;7542;49.078;9.194;2023-05-07T06:21:01;25.60;50.70
14901;DHT22;7542;49.078;9.194;2023-05-07T06:22:04;25.60;50.90
14901;DHT22;7542;49.078;9.194;2023-05-07T06:23:07;25.50;50.90
14901;DHT22;7542;49.078;9.194;2023-05-07T06:24:09;25.60;50.90
14901;DHT22;7542;49.078;9.194;2023-05-07T06:25:11;25.60;50.80
14901;DHT22;7542;49.078;9.194;2023-05-07T06:26:13;25.70;50.90
14901;DHT22;7542;49.078;9.194;2023-05-07T06:27:15;25.70;51.30
14901;DHT22;7542;49.078;9.194;2023-05-07T06:28:17;25.60;51.60
14901;DHT22;7542;49.078;9.194;2023-05-07T06:29:19;25.70;51.70
14901;DHT22;7542;49.078;9.194;2023-05-07T06:30:21;25.70;51.70
14901;DHT22;7542;49.078;9.194;2023-05-07T06:31:30;25.70;51.50
14901;DHT22;7542;49.078;9.194;2023-05-07T06:32:34;25.70;51.10
14901;DHT22;7542;49.078;9.194;2023-05-07T06:33:36;25.90;51.00
14901;DHT22;7542;49.078;9.194;2023-05-07T06:34:39;25.70;50.90
14901;DHT22;7542;49.078;9.194;2023-05-07T06:35:42;25.70;50.90
14901;DHT22;7542;49.078;9.194;2023-05-07T06:36:44;25.70;50.90
14901;DHT22;7542;49.078;9.194;2023-05-07T06:37:46;25.70;50.70
14901;DHT22;7542;49.078;9.194;2023-05-07T06:38:48;25.70;50.60
14901;DHT22;7542;49.078;9.194;2023-05-07T06:39:50;25.70;50.60
14901;DHT22;7542;49.078;9.194;2023-05-07T06:40:52;25.70;50.60
14901;DHT22;7542;49.078;9.194;2023-05-07T06:41:57;25.70;50.70